createdAt,value
2017-10-28T00:00:13.786Z,89.79
2017-10-28T00:01:13.783Z,90.17
2017-10-28T00:02:13.782Z,89.22
2017-10-28T00:03:13.779Z,89.22
2017-10-28T00:04:13.778Z,89.89
2017-10-28T00:05:13.774Z,89.79
2017-10-28T00:06:13.776Z,89.69
2017-10-28T00:07:13.770Z,89.69
2017-10-28T00:08:13.796Z,88.74
2017-10-28T00:09:13.765Z,89.50
2017-10-28T00:10:13.776Z,88.93
2017-10-28T00:11:13.759Z,88.64
2017-10-28T00:12:13.758Z,89.12
2017-10-28T00:13:13.755Z,89.22
2017-10-28T00:14:13.763Z,89.40
2017-10-28T00:15:13.750Z,88.93
2017-10-28T00:16:13.748Z,89.22
2017-10-28T00:17:13.745Z,89.40
2017-10-28T00:18:13.742Z,89.40
2017-10-28T00:19:13.742Z,89.31
2017-10-28T00:20:13.739Z,89.12
2017-10-28T00:21:13.738Z,89.50
2017-10-28T00:22:13.737Z,89.50
2017-10-28T00:23:14.715Z,89.22
2017-10-28T00:24:13.729Z,89.40
2017-10-28T00:25:13.725Z,89.31
2017-10-28T00:26:13.727Z,88.55
2017-10-28T00:27:13.722Z,88.55
2017-10-28T00:28:13.720Z,89.40
2017-10-28T00:29:13.716Z,88.84
2017-10-28T00:30:13.719Z,88.74
2017-10-28T00:31:13.714Z,88.93
2017-10-28T00:32:13.711Z,89.22
2017-10-28T00:33:13.707Z,89.69
2017-10-28T00:34:13.708Z,88.84
2017-10-28T00:35:13.702Z,89.22
2017-10-28T00:36:13.701Z,88.93
2017-10-28T00:37:13.699Z,88.74
2017-10-28T00:38:13.727Z,89.12
2017-10-28T00:39:13.695Z,88.45
2017-10-28T00:40:13.694Z,87.69
2017-10-28T00:41:13.697Z,87.98
2017-10-28T00:42:13.687Z,87.21
2017-10-28T00:43:13.683Z,87.88
2017-10-28T00:44:13.685Z,88.45
2017-10-28T00:45:13.678Z,87.88
2017-10-28T00:46:13.686Z,87.40
2017-10-28T00:47:13.675Z,87.40
2017-10-28T00:48:13.674Z,87.12
2017-10-28T00:49:13.675Z,87.21
2017-10-28T00:50:13.666Z,87.16
2017-10-28T00:51:13.665Z,87.54
2017-10-28T00:52:13.666Z,86.69
2017-10-28T00:53:13.661Z,86.02
2017-10-28T00:54:13.662Z,86.49
2017-10-28T00:55:13.656Z,86.88
2017-10-28T00:56:13.658Z,85.93
2017-10-28T00:57:13.652Z,85.45
2017-10-28T00:58:13.656Z,85.16
2017-10-28T00:59:13.647Z,84.69
2017-10-28T01:00:13.647Z,84.78
2017-10-28T01:01:13.642Z,85.06
2017-10-28T01:02:13.641Z,85.35
2017-10-28T01:03:13.640Z,85.50
2017-10-28T01:04:13.638Z,85.73
2017-10-28T01:05:13.641Z,85.73
2017-10-28T01:06:13.635Z,85.45
2017-10-28T01:07:13.631Z,85.25
2017-10-28T01:08:13.633Z,85.54
2017-10-28T01:09:13.626Z,85.73
2017-10-28T01:10:13.625Z,85.64
2017-10-28T01:11:13.628Z,84.78
2017-10-28T01:12:13.619Z,85.06
2017-10-28T01:13:13.625Z,85.06
2017-10-28T01:14:13.615Z,85.06
2017-10-28T01:15:13.614Z,85.35
2017-10-28T01:16:13.612Z,84.97
2017-10-28T01:17:13.610Z,85.06
2017-10-28T01:18:13.607Z,85.35
2017-10-28T01:19:13.604Z,84.88
2017-10-28T01:20:13.606Z,83.54
2017-10-28T01:21:13.602Z,83.83
2017-10-28T01:22:13.605Z,83.78
2017-10-28T01:23:13.597Z,83.40
2017-10-28T01:24:13.592Z,83.12
2017-10-28T01:25:13.591Z,83.25
2017-10-28T01:26:13.588Z,83.64
2017-10-28T01:27:14.343Z,83.31
2017-10-28T01:28:13.588Z,83.73
2017-10-28T01:29:13.580Z,83.92
2017-10-28T01:30:13.587Z,84.20
2017-10-28T01:31:13.576Z,82.97
2017-10-28T01:32:13.576Z,83.06
2017-10-28T01:33:13.572Z,83.44
2017-10-28T01:34:13.572Z,82.78
2017-10-28T01:35:13.567Z,82.64
2017-10-28T01:36:13.573Z,82.87
2017-10-28T01:37:13.562Z,82.87
2017-10-28T01:38:13.568Z,83.83
2017-10-28T01:39:13.560Z,83.25
2017-10-28T01:40:13.571Z,83.69
2017-10-28T01:41:13.558Z,83.25
2017-10-28T01:42:13.551Z,83.54
2017-10-28T01:43:13.557Z,83.02
2017-10-28T01:44:13.548Z,82.73
2017-10-28T01:45:13.553Z,82.87
2017-10-28T01:46:13.542Z,83.31
2017-10-28T01:47:13.545Z,83.40
2017-10-28T01:48:13.538Z,82.92
2017-10-28T01:49:13.534Z,83.02
2017-10-28T01:50:13.533Z,83.31
2017-10-28T01:51:13.534Z,83.50
2017-10-28T01:52:13.529Z,83.21
2017-10-28T01:53:13.524Z,82.73
2017-10-28T01:54:13.530Z,83.21
2017-10-28T01:55:13.871Z,82.35
2017-10-28T01:56:13.520Z,82.45
2017-10-28T01:57:13.515Z,83.02
2017-10-28T01:58:13.513Z,82.35
2017-10-28T01:59:13.510Z,83.59
2017-10-28T02:00:13.509Z,82.73
2017-10-28T02:01:13.510Z,83.69
2017-10-28T02:02:13.504Z,83.02
2017-10-28T02:03:13.501Z,82.26
2017-10-28T02:04:13.504Z,82.07
2017-10-28T02:05:13.495Z,81.40
2017-10-28T02:06:13.493Z,82.54
2017-10-28T02:07:13.490Z,82.45
2017-10-28T02:08:13.488Z,81.40
2017-10-28T02:09:13.486Z,82.35
2017-10-28T02:10:13.482Z,82.35
2017-10-28T02:11:13.479Z,82.54
2017-10-28T02:12:13.479Z,82.45
2017-10-28T02:13:13.473Z,82.45
2017-10-28T02:14:13.471Z,82.35
2017-10-28T02:15:13.526Z,83.02
2017-10-28T02:16:13.466Z,82.26
2017-10-28T02:17:13.465Z,81.30
2017-10-28T02:18:13.461Z,81.97
2017-10-28T02:19:13.458Z,81.30
2017-10-28T02:20:13.455Z,81.12
2017-10-28T02:21:13.453Z,81.40
2017-10-28T02:22:13.450Z,82.45
2017-10-28T02:23:13.448Z,81.59
2017-10-28T02:24:13.445Z,81.30
2017-10-28T02:25:13.444Z,80.73
2017-10-28T02:26:14.280Z,81.02
2017-10-28T02:27:13.438Z,80.92
2017-10-28T02:28:13.434Z,81.12
2017-10-28T02:29:13.432Z,80.73
2017-10-28T02:30:13.431Z,80.73
2017-10-28T02:31:13.426Z,81.21
2017-10-28T02:32:13.427Z,81.49
2017-10-28T02:33:13.422Z,80.92
2017-10-28T02:34:13.419Z,81.02
2017-10-28T02:35:13.415Z,81.21
2017-10-28T02:36:13.416Z,80.64
2017-10-28T02:37:13.414Z,80.73
2017-10-28T02:38:13.406Z,80.92
2017-10-28T02:39:13.405Z,80.35
2017-10-28T02:40:13.402Z,80.73
2017-10-28T02:41:13.401Z,79.97
2017-10-28T02:42:13.397Z,80.16
2017-10-28T02:43:13.396Z,80.07
2017-10-28T02:44:13.393Z,79.78
2017-10-28T02:45:13.388Z,79.68
2017-10-28T02:46:13.386Z,79.88
2017-10-28T02:47:13.383Z,80.16
2017-10-28T02:48:13.382Z,80.26
2017-10-28T02:49:13.380Z,79.40
2017-10-28T02:50:13.375Z,79.78
2017-10-28T02:51:13.373Z,79.78
2017-10-28T02:52:13.371Z,79.59
2017-10-28T02:53:13.367Z,79.40
2017-10-28T02:54:13.367Z,79.30
2017-10-28T02:55:13.365Z,79.49
2017-10-28T02:56:13.364Z,79.49
2017-10-28T02:57:13.358Z,79.30
2017-10-28T02:58:13.354Z,79.59
2017-10-28T02:59:13.352Z,79.30
2017-10-28T03:00:13.351Z,79.02
2017-10-28T03:01:13.345Z,79.30
2017-10-28T03:02:13.346Z,79.30
2017-10-28T03:03:13.341Z,78.92
2017-10-28T03:04:13.338Z,79.59
2017-10-28T03:05:13.340Z,79.21
2017-10-28T03:06:13.332Z,79.21
2017-10-28T03:07:13.346Z,78.64
2017-10-28T03:08:13.328Z,78.06
2017-10-28T03:09:13.324Z,78.54
2017-10-28T03:10:13.323Z,78.54
2017-10-28T03:11:13.321Z,78.54
2017-10-28T03:12:13.318Z,78.25
2017-10-28T03:13:13.316Z,77.40
2017-10-28T03:14:13.311Z,76.35
2017-10-28T03:15:13.311Z,76.82
2017-10-28T03:16:13.340Z,77.20
2017-10-28T03:17:13.305Z,76.64
2017-10-28T03:18:35.067Z,76.73
2017-10-28T03:19:13.300Z,76.64
2017-10-28T03:20:13.304Z,76.35
2017-10-28T03:21:13.294Z,76.25
2017-10-28T03:22:13.292Z,75.78
2017-10-28T03:23:13.293Z,75.49
2017-10-28T03:24:13.289Z,75.59
2017-10-28T03:25:13.284Z,75.30
2017-10-28T03:26:13.286Z,75.01
2017-10-28T03:27:13.282Z,75.40
2017-10-28T03:28:13.276Z,75.87
2017-10-28T03:29:13.274Z,75.59
2017-10-28T03:30:13.273Z,75.78
2017-10-28T03:31:13.270Z,74.25
2017-10-28T03:32:13.267Z,74.16
2017-10-28T03:33:13.278Z,74.73
2017-10-28T03:34:13.261Z,74.82
2017-10-28T03:35:13.258Z,75.01
2017-10-28T03:36:13.279Z,74.54
2017-10-28T03:37:13.262Z,74.54
2017-10-28T03:38:13.250Z,74.92
2017-10-28T03:39:13.248Z,74.44
2017-10-28T03:40:13.246Z,74.35
2017-10-28T03:41:13.243Z,73.87
2017-10-28T03:42:13.240Z,74.25
2017-10-28T03:43:13.238Z,74.25
2017-10-28T03:44:13.237Z,74.16
2017-10-28T03:45:13.240Z,74.44
2017-10-28T03:46:13.233Z,74.63
2017-10-28T03:47:13.229Z,73.96
2017-10-28T03:48:13.233Z,74.25
2017-10-28T03:49:13.223Z,73.87
2017-10-28T03:50:13.221Z,73.87
2017-10-28T03:51:13.218Z,72.92
2017-10-28T03:52:13.217Z,73.39
2017-10-28T03:53:13.214Z,74.06
2017-10-28T03:54:13.210Z,73.87
2017-10-28T03:55:13.208Z,73.96
2017-10-28T03:56:13.206Z,74.16
2017-10-28T03:57:13.203Z,74.63
2017-10-28T03:58:13.438Z,74.73
2017-10-28T03:59:13.198Z,75.11
2017-10-28T04:00:13.195Z,74.63
2017-10-28T04:01:13.193Z,75.11
2017-10-28T04:02:13.191Z,75.20
2017-10-28T04:03:13.188Z,75.59
2017-10-28T04:04:13.186Z,75.49
2017-10-28T04:05:13.181Z,75.11
2017-10-28T04:06:13.180Z,74.82
2017-10-28T04:07:13.176Z,75.40
2017-10-28T04:08:13.174Z,75.20
2017-10-28T04:09:13.171Z,75.30
2017-10-28T04:10:13.169Z,75.68
2017-10-28T04:11:13.165Z,75.87
2017-10-28T04:12:13.163Z,75.78
2017-10-28T04:13:13.163Z,75.59
2017-10-28T04:14:13.158Z,75.68
2017-10-28T04:15:13.162Z,75.78
2017-10-28T04:16:13.152Z,76.16
2017-10-28T04:17:13.149Z,75.78
2017-10-28T04:18:13.146Z,75.20
2017-10-28T04:19:13.145Z,75.30
2017-10-28T04:20:13.141Z,75.78
2017-10-28T04:21:13.138Z,75.30
2017-10-28T04:22:13.135Z,74.88
2017-10-28T04:23:13.132Z,75.07
2017-10-28T04:24:13.131Z,75.01
2017-10-28T04:25:13.125Z,75.07
2017-10-28T04:26:13.124Z,75.01
2017-10-28T04:27:13.121Z,75.26
2017-10-28T04:28:13.122Z,75.11
2017-10-28T04:29:13.813Z,75.16
2017-10-28T04:30:13.113Z,75.49
2017-10-28T04:31:13.109Z,75.11
2017-10-28T04:32:13.113Z,75.30
2017-10-28T04:33:13.103Z,75.01
2017-10-28T04:34:13.100Z,75.49
2017-10-28T04:35:13.104Z,75.16
2017-10-28T04:36:13.098Z,75.49
2017-10-28T04:37:13.094Z,75.40
2017-10-28T04:38:13.090Z,75.40
2017-10-28T04:39:13.088Z,74.92
2017-10-28T04:40:13.085Z,75.20
2017-10-28T04:41:13.080Z,75.59
2017-10-28T04:42:13.086Z,75.49
2017-10-28T04:43:13.079Z,74.92
2017-10-28T04:44:13.074Z,75.01
2017-10-28T04:45:13.070Z,74.82
2017-10-28T04:46:13.067Z,75.01
2017-10-28T04:47:13.064Z,74.92
2017-10-28T04:48:13.063Z,74.82
2017-10-28T04:49:13.058Z,74.54
2017-10-28T04:50:13.055Z,75.01
2017-10-28T04:51:13.053Z,75.11
2017-10-28T04:52:13.054Z,74.35
2017-10-28T04:53:13.048Z,75.01
2017-10-28T04:54:13.044Z,74.35
2017-10-28T04:55:13.042Z,74.82
2017-10-28T04:56:13.041Z,74.44
2017-10-28T04:57:13.036Z,74.25
2017-10-28T04:58:13.033Z,74.35
2017-10-28T04:59:13.030Z,74.35
2017-10-28T05:00:13.029Z,74.63
2017-10-28T05:01:13.026Z,74.92
2017-10-28T05:02:13.025Z,74.44
2017-10-28T05:03:13.019Z,74.92
2017-10-28T05:04:13.018Z,75.49
2017-10-28T05:05:13.017Z,74.92
2017-10-28T05:06:13.011Z,75.40
2017-10-28T05:07:13.009Z,75.40
2017-10-28T05:08:13.007Z,75.59
2017-10-28T05:09:13.004Z,74.82
2017-10-28T05:10:13.001Z,74.92
2017-10-28T05:11:12.999Z,75.11
2017-10-28T05:12:12.997Z,75.30
2017-10-28T05:13:12.991Z,75.01
2017-10-28T05:14:12.989Z,74.63
2017-10-28T05:15:12.987Z,74.63
2017-10-28T05:16:12.984Z,75.30
2017-10-28T05:17:12.981Z,75.11
2017-10-28T05:18:12.980Z,74.92
2017-10-28T05:19:12.978Z,74.54
2017-10-28T05:20:12.973Z,74.35
2017-10-28T05:21:12.970Z,74.44
2017-10-28T05:22:12.973Z,74.06
2017-10-28T05:23:12.966Z,73.87
2017-10-28T05:24:12.963Z,73.87
2017-10-28T05:25:12.959Z,73.96
2017-10-28T05:26:12.956Z,73.87
2017-10-28T05:27:12.954Z,73.87
2017-10-28T05:28:12.952Z,73.39
2017-10-28T05:29:12.950Z,73.96
2017-10-28T05:30:12.945Z,73.87
2017-10-28T05:31:12.943Z,73.87
2017-10-28T05:32:12.943Z,74.06
2017-10-28T05:33:12.937Z,74.35
2017-10-28T05:34:12.935Z,74.54
2017-10-28T05:35:12.933Z,74.16
2017-10-28T05:36:12.929Z,73.96
2017-10-28T05:37:12.929Z,73.96
2017-10-28T05:38:12.922Z,73.96
2017-10-28T05:39:12.922Z,73.49
2017-10-28T05:40:12.918Z,73.26
2017-10-28T05:41:12.916Z,73.39
2017-10-28T05:42:12.911Z,72.82
2017-10-28T05:43:12.908Z,72.44
2017-10-28T05:44:12.905Z,72.34
2017-10-28T05:45:12.903Z,72.34
2017-10-28T05:46:12.902Z,71.87
2017-10-28T05:47:12.901Z,71.68
2017-10-28T05:48:12.895Z,72.06
2017-10-28T05:49:12.891Z,72.16
2017-10-28T05:50:12.888Z,72.25
2017-10-28T05:51:12.884Z,72.16
2017-10-28T05:52:12.882Z,72.25
2017-10-28T05:53:12.883Z,72.34
2017-10-28T05:54:12.878Z,71.48
2017-10-28T05:55:12.917Z,71.77
2017-10-28T05:56:13.174Z,71.68
2017-10-28T05:57:12.868Z,71.68
2017-10-28T05:58:13.018Z,71.87
2017-10-28T05:59:13.045Z,72.34
2017-10-28T06:00:13.125Z,71.77
2017-10-28T06:01:12.942Z,71.58
2017-10-28T06:02:13.056Z,72.25
2017-10-28T06:03:13.107Z,72.53
2017-10-28T06:04:13.586Z,72.53
2017-10-28T06:05:13.570Z,72.34
2017-10-28T06:06:12.999Z,72.34
2017-10-28T06:07:12.840Z,72.53
2017-10-28T06:08:13.584Z,72.34
2017-10-28T06:09:12.847Z,72.34
2017-10-28T06:10:13.164Z,72.44
2017-10-28T06:11:12.831Z,72.34
2017-10-28T06:12:12.828Z,72.72
2017-10-28T06:13:12.822Z,72.25
2017-10-28T06:14:12.819Z,72.44
2017-10-28T06:15:12.816Z,72.34
2017-10-28T06:16:12.821Z,72.34
2017-10-28T06:17:12.810Z,72.34
2017-10-28T06:18:12.808Z,72.16
2017-10-28T06:19:12.807Z,72.06
2017-10-28T06:20:12.803Z,72.16
2017-10-28T06:21:12.803Z,71.87
2017-10-28T06:22:12.796Z,71.68
2017-10-28T06:23:12.794Z,71.87
2017-10-28T06:24:12.792Z,72.06
2017-10-28T06:25:12.790Z,72.44
2017-10-28T06:26:13.098Z,72.25
2017-10-28T06:27:13.027Z,72.06
2017-10-28T06:28:12.781Z,71.96
2017-10-28T06:29:12.779Z,72.06
2017-10-28T06:30:12.777Z,71.96
2017-10-28T06:31:12.772Z,72.25
2017-10-28T06:32:13.344Z,72.06
2017-10-28T06:33:12.767Z,72.25
2017-10-28T06:34:12.764Z,72.63
2017-10-28T06:35:12.761Z,72.44
2017-10-28T06:36:12.759Z,72.44
2017-10-28T06:37:12.755Z,71.96
2017-10-28T06:38:12.753Z,71.77
2017-10-28T06:39:12.750Z,71.96
2017-10-28T06:40:12.747Z,71.96
2017-10-28T06:41:12.745Z,71.87
2017-10-28T06:42:12.741Z,72.06
2017-10-28T06:43:12.738Z,71.87
2017-10-28T06:44:12.737Z,72.44
2017-10-28T06:45:12.734Z,71.87
2017-10-28T06:46:12.732Z,71.77
2017-10-28T06:47:12.728Z,71.77
2017-10-28T06:48:12.726Z,71.96
2017-10-28T06:49:12.722Z,72.06
2017-10-28T06:50:12.722Z,72.34
2017-10-28T06:51:12.716Z,71.77
2017-10-28T06:52:12.714Z,70.92
2017-10-28T06:53:12.713Z,71.48
2017-10-28T06:54:12.715Z,71.77
2017-10-28T06:55:12.709Z,71.48
2017-10-28T06:56:12.703Z,70.53
2017-10-28T06:57:12.701Z,70.72
2017-10-28T06:58:12.699Z,70.63
2017-10-28T06:59:12.695Z,71.39
2017-10-28T07:00:12.693Z,71.01
2017-10-28T07:01:12.689Z,70.44
2017-10-28T07:02:12.686Z,70.82
2017-10-28T07:03:12.683Z,70.92
2017-10-28T07:04:12.696Z,70.53
2017-10-28T07:05:12.678Z,71.11
2017-10-28T07:06:12.681Z,70.92
2017-10-28T07:07:12.674Z,70.72
2017-10-28T07:08:12.670Z,70.44
2017-10-28T07:09:12.668Z,70.92
2017-10-28T07:10:12.664Z,70.63
2017-10-28T07:11:12.662Z,70.63
2017-10-28T07:12:12.663Z,70.72
2017-10-28T07:13:12.656Z,70.44
2017-10-28T07:14:12.654Z,70.63
2017-10-28T07:15:12.652Z,71.11
2017-10-28T07:16:12.649Z,70.63
2017-10-28T07:17:12.650Z,70.92
2017-10-28T07:18:12.643Z,69.87
2017-10-28T07:19:12.640Z,70.72
2017-10-28T07:20:12.637Z,70.15
2017-10-28T07:21:12.640Z,70.34
2017-10-28T07:22:12.635Z,70.53
2017-10-28T07:23:12.632Z,70.06
2017-10-28T07:24:12.628Z,70.06
2017-10-28T07:25:12.635Z,70.25
2017-10-28T07:26:12.621Z,69.29
2017-10-28T07:27:12.618Z,69.20
2017-10-28T07:28:12.615Z,69.39
2017-10-28T07:29:12.611Z,69.20
2017-10-28T07:30:12.610Z,69.48
2017-10-28T07:31:12.607Z,68.82
2017-10-28T07:32:12.606Z,69.20
2017-10-28T07:33:12.610Z,68.53
2017-10-28T07:34:12.602Z,68.63
2017-10-28T07:35:12.599Z,68.63
2017-10-28T07:36:12.600Z,67.48
2017-10-28T07:37:12.592Z,67.29
2017-10-28T07:38:12.588Z,67.68
2017-10-28T07:39:12.587Z,66.82
2017-10-28T07:40:12.586Z,66.82
2017-10-28T07:41:12.581Z,66.63
2017-10-28T07:42:12.578Z,66.72
2017-10-28T07:43:12.577Z,66.91
2017-10-28T07:44:12.573Z,67.00
2017-10-28T07:45:12.569Z,66.82
2017-10-28T07:46:12.567Z,66.72
2017-10-28T07:47:12.571Z,67.23
2017-10-28T07:48:12.563Z,66.66
2017-10-28T07:49:12.558Z,66.75
2017-10-28T07:50:12.556Z,66.56
2017-10-28T07:51:12.554Z,66.75
2017-10-28T07:52:12.555Z,67.14
2017-10-28T07:53:12.550Z,67.04
2017-10-28T07:54:12.546Z,67.23
2017-10-28T07:55:12.544Z,67.14
2017-10-28T07:56:12.541Z,66.75
2017-10-28T07:57:12.538Z,66.75
2017-10-28T07:58:12.538Z,67.04
2017-10-28T07:59:12.533Z,67.23
2017-10-28T08:00:12.529Z,66.75
2017-10-28T08:01:12.529Z,67.20
2017-10-28T08:02:12.525Z,67.77
2017-10-28T08:03:12.522Z,67.39
2017-10-28T08:04:12.520Z,67.39
2017-10-28T08:05:12.518Z,67.68
2017-10-28T08:06:12.515Z,67.29
2017-10-28T08:07:12.512Z,68.05
2017-10-28T08:08:12.514Z,67.39
2017-10-28T08:09:12.505Z,67.29
2017-10-28T08:10:12.503Z,67.48
2017-10-28T08:11:12.502Z,67.86
2017-10-28T08:12:12.499Z,67.86
2017-10-28T08:13:12.495Z,67.48
2017-10-28T08:14:12.498Z,67.33
2017-10-28T08:15:12.490Z,66.91
2017-10-28T08:16:12.491Z,66.85
2017-10-28T08:17:12.483Z,66.72
2017-10-28T08:18:12.481Z,66.85
2017-10-28T08:19:12.480Z,67.00
2017-10-28T08:20:12.476Z,66.66
2017-10-28T08:21:12.474Z,66.75
2017-10-28T08:22:12.471Z,66.56
2017-10-28T08:23:12.468Z,66.75
2017-10-28T08:24:12.465Z,67.23
2017-10-28T08:25:12.462Z,66.66
2017-10-28T08:26:12.460Z,66.38
2017-10-28T08:27:12.460Z,66.53
2017-10-28T08:28:12.455Z,66.38
2017-10-28T08:29:12.452Z,66.47
2017-10-28T08:30:12.453Z,67.04
2017-10-28T08:31:12.447Z,66.47
2017-10-28T08:32:12.444Z,65.99
2017-10-28T08:33:12.442Z,65.89
2017-10-28T08:34:12.440Z,65.80
2017-10-28T08:35:12.881Z,66.18
2017-10-28T08:36:12.435Z,65.89
2017-10-28T08:37:12.467Z,66.28
2017-10-28T08:38:12.428Z,65.89
2017-10-28T08:39:12.428Z,66.28
2017-10-28T08:40:12.423Z,66.18
2017-10-28T08:41:12.420Z,66.28
2017-10-28T08:42:12.418Z,65.89
2017-10-28T08:43:12.432Z,65.80
2017-10-28T08:44:12.413Z,65.61
2017-10-28T08:45:12.410Z,66.56
2017-10-28T08:46:12.408Z,66.85
2017-10-28T08:47:12.406Z,66.47
2017-10-28T08:48:12.405Z,66.85
2017-10-28T08:49:12.398Z,66.56
2017-10-28T08:50:12.408Z,65.80
2017-10-28T08:51:12.394Z,66.09
2017-10-28T08:52:12.397Z,65.70
2017-10-28T08:53:12.408Z,65.99
2017-10-28T08:54:12.386Z,66.38
2017-10-28T08:55:12.384Z,65.52
2017-10-28T08:56:12.383Z,65.13
2017-10-28T08:57:12.377Z,65.61
2017-10-28T08:58:12.375Z,65.42
2017-10-28T08:59:12.377Z,64.56
2017-10-28T09:00:12.372Z,65.04
2017-10-28T09:01:12.368Z,64.94
2017-10-28T09:02:12.367Z,65.23
2017-10-28T09:03:12.365Z,65.23
2017-10-28T09:04:12.365Z,65.13
2017-10-28T09:05:12.360Z,64.56
2017-10-28T09:06:13.259Z,65.13
2017-10-28T09:07:12.356Z,65.04
2017-10-28T09:08:12.352Z,65.13
2017-10-28T09:09:12.347Z,64.94
2017-10-28T09:10:12.352Z,64.85
2017-10-28T09:11:12.346Z,65.13
2017-10-28T09:12:12.342Z,65.13
2017-10-28T09:13:12.341Z,65.61
2017-10-28T09:14:12.336Z,65.13
2017-10-28T09:15:12.333Z,65.04
2017-10-28T09:16:12.331Z,64.65
2017-10-28T09:17:12.328Z,65.33
2017-10-28T09:18:12.328Z,65.33
2017-10-28T09:19:12.323Z,65.13
2017-10-28T09:20:12.322Z,65.13
2017-10-28T09:21:12.318Z,65.52
2017-10-28T09:22:12.317Z,65.52
2017-10-28T09:23:12.319Z,65.70
2017-10-28T09:24:12.313Z,65.23
2017-10-28T09:25:12.312Z,65.23
2017-10-28T09:26:12.326Z,65.70
2017-10-28T09:27:12.304Z,65.61
2017-10-28T09:28:12.303Z,65.04
2017-10-28T09:29:12.300Z,65.23
2017-10-28T09:30:12.301Z,64.59
2017-10-28T09:31:12.294Z,64.21
2017-10-28T09:32:12.295Z,64.28
2017-10-28T09:33:12.293Z,64.28
2017-10-28T09:34:12.288Z,64.12
2017-10-28T09:35:12.288Z,64.50
2017-10-28T09:36:12.286Z,64.31
2017-10-28T09:37:12.282Z,64.21
2017-10-28T09:38:12.286Z,64.31
2017-10-28T09:39:12.282Z,64.21
2017-10-28T09:40:12.276Z,64.40
2017-10-28T09:41:12.277Z,63.83
2017-10-28T09:42:12.270Z,64.02
2017-10-28T09:43:12.269Z,63.92
2017-10-28T09:44:12.265Z,64.12
2017-10-28T09:45:12.265Z,64.21
2017-10-28T09:46:12.261Z,64.12
2017-10-28T09:47:12.261Z,63.64
2017-10-28T09:48:12.263Z,63.16
2017-10-28T09:49:12.258Z,63.64
2017-10-28T09:50:12.253Z,63.73
2017-10-28T09:51:12.256Z,63.92
2017-10-28T09:52:12.250Z,63.73
2017-10-28T09:53:12.249Z,63.73
2017-10-28T09:54:12.247Z,63.92
2017-10-28T09:55:12.244Z,63.83
2017-10-28T09:56:12.250Z,63.73
2017-10-28T09:57:12.260Z,63.92
2017-10-28T09:58:12.241Z,64.02
2017-10-28T09:59:12.237Z,64.12
2017-10-28T10:00:12.235Z,63.35
2017-10-28T10:01:12.232Z,63.16
2017-10-28T10:02:12.230Z,63.16
2017-10-28T10:03:12.227Z,63.35
2017-10-28T10:04:12.226Z,62.49
2017-10-28T10:05:12.235Z,63.26
2017-10-28T10:06:12.223Z,63.64
2017-10-28T10:07:12.223Z,63.54
2017-10-28T10:08:12.219Z,63.35
2017-10-28T10:09:12.215Z,63.16
2017-10-28T10:10:12.218Z,63.45
2017-10-28T10:11:12.212Z,63.64
2017-10-28T10:12:12.210Z,63.73
2017-10-28T10:13:12.208Z,63.35
2017-10-28T10:14:12.217Z,63.73
2017-10-28T10:15:12.208Z,63.26
2017-10-28T10:16:12.202Z,63.54
2017-10-28T10:17:12.203Z,63.26
2017-10-28T10:18:12.199Z,63.26
2017-10-28T10:19:12.198Z,63.35
2017-10-28T10:20:12.195Z,63.35
2017-10-28T10:21:12.210Z,63.26
2017-10-28T10:22:12.193Z,62.97
2017-10-28T10:23:12.188Z,63.35
2017-10-28T10:24:12.195Z,63.39
2017-10-28T10:25:12.191Z,62.97
2017-10-28T10:26:12.183Z,62.88
2017-10-28T10:27:12.194Z,62.91
2017-10-28T10:28:12.182Z,62.91
2017-10-28T10:29:12.178Z,63.57
2017-10-28T10:30:12.177Z,63.20
2017-10-28T10:31:12.175Z,63.35
2017-10-28T10:32:12.173Z,63.54
2017-10-28T10:33:12.171Z,63.26
2017-10-28T10:34:12.172Z,63.73
2017-10-28T10:35:12.169Z,63.67
2017-10-28T10:36:12.168Z,63.26
2017-10-28T10:37:12.165Z,63.29
2017-10-28T10:38:12.415Z,63.26
2017-10-28T10:39:12.161Z,63.39
2017-10-28T10:40:12.170Z,63.57
2017-10-28T10:41:12.157Z,63.26
2017-10-28T10:42:12.159Z,63.26
2017-10-28T10:43:12.156Z,62.97
2017-10-28T10:44:12.155Z,63.26
2017-10-28T10:45:12.151Z,63.35
2017-10-28T10:46:12.150Z,63.64
2017-10-28T10:47:12.147Z,63.73
2017-10-28T10:48:12.146Z,63.83
2017-10-28T10:49:12.150Z,63.73
2017-10-28T10:50:12.143Z,64.02
2017-10-28T10:51:12.143Z,64.21
2017-10-28T10:52:12.137Z,64.12
2017-10-28T10:53:12.134Z,64.21
2017-10-28T10:54:12.134Z,64.12
2017-10-28T10:55:12.133Z,63.73
2017-10-28T10:56:12.132Z,63.92
2017-10-28T10:57:12.128Z,63.83
2017-10-28T10:58:12.127Z,63.92
2017-10-28T10:59:12.126Z,64.12
2017-10-28T11:00:12.124Z,63.83
2017-10-28T11:01:12.121Z,63.64
2017-10-28T11:02:12.120Z,64.12
2017-10-28T11:03:12.118Z,63.92
2017-10-28T11:04:12.118Z,63.83
2017-10-28T11:05:12.114Z,63.73
2017-10-28T11:06:12.115Z,64.12
2017-10-28T11:07:12.111Z,64.21
2017-10-28T11:08:12.110Z,63.83
2017-10-28T11:09:12.792Z,64.31
2017-10-28T11:10:12.112Z,64.31
2017-10-28T11:11:12.104Z,64.31
2017-10-28T11:12:12.102Z,64.31
2017-10-28T11:13:12.099Z,64.31
2017-10-28T11:14:12.102Z,64.12
2017-10-28T11:15:12.107Z,64.50
2017-10-28T11:16:12.096Z,64.31
2017-10-28T11:17:12.094Z,64.21
2017-10-28T11:18:12.096Z,64.50
2017-10-28T11:19:12.091Z,64.59
2017-10-28T11:20:12.088Z,64.69
2017-10-28T11:21:12.085Z,64.69
2017-10-28T11:22:12.087Z,64.88
2017-10-28T11:23:12.080Z,64.69
2017-10-28T11:24:12.079Z,64.88
2017-10-28T11:25:12.077Z,64.40
2017-10-28T11:26:12.079Z,64.40
2017-10-28T11:27:12.084Z,64.31
2017-10-28T11:28:12.072Z,63.92
2017-10-28T11:29:12.071Z,64.31
2017-10-28T11:30:12.070Z,64.12
2017-10-28T11:31:12.068Z,63.92
2017-10-28T11:32:12.066Z,64.02
2017-10-28T11:33:12.063Z,64.31
2017-10-28T11:34:12.060Z,64.21
2017-10-28T11:35:12.059Z,64.02
2017-10-28T11:36:12.057Z,64.12
2017-10-28T11:37:12.054Z,63.73
2017-10-28T11:38:12.053Z,63.73
2017-10-28T11:39:12.053Z,64.40
2017-10-28T11:40:12.052Z,64.12
2017-10-28T11:41:12.048Z,64.21
2017-10-28T11:42:12.045Z,64.21
2017-10-28T11:43:12.045Z,63.92
2017-10-28T11:44:12.042Z,64.21
2017-10-28T11:45:12.039Z,64.31
2017-10-28T11:46:12.038Z,64.31
2017-10-28T11:47:12.039Z,64.12
2017-10-28T11:48:12.034Z,64.40
2017-10-28T11:49:12.030Z,63.83
2017-10-28T11:50:12.031Z,64.02
2017-10-28T11:51:12.031Z,63.64
2017-10-28T11:52:12.028Z,63.73
2017-10-28T11:53:12.023Z,63.35
2017-10-28T11:54:12.022Z,63.45
2017-10-28T11:55:12.022Z,63.83
2017-10-28T11:56:12.034Z,63.64
2017-10-28T11:57:12.020Z,63.64
2017-10-28T11:58:12.015Z,63.45
2017-10-28T11:59:12.013Z,63.54
2017-10-28T12:00:12.013Z,63.54
2017-10-28T12:01:12.017Z,63.26
2017-10-28T12:02:12.010Z,63.35
2017-10-28T12:03:12.005Z,63.26
2017-10-28T12:04:12.005Z,63.26
2017-10-28T12:05:12.003Z,63.16
2017-10-28T12:06:12.009Z,62.97
2017-10-28T12:07:11.998Z,63.83
2017-10-28T12:08:12.001Z,63.92
2017-10-28T12:09:11.995Z,64.02
2017-10-28T12:10:11.997Z,64.21
2017-10-28T12:11:11.991Z,63.92
2017-10-28T12:12:11.989Z,63.73
2017-10-28T12:13:11.989Z,63.54
2017-10-28T12:14:11.987Z,63.73
2017-10-28T12:15:11.984Z,63.64
2017-10-28T12:16:11.985Z,63.54
2017-10-28T12:17:11.979Z,64.21
2017-10-28T12:18:11.977Z,64.02
2017-10-28T12:19:11.975Z,64.69
2017-10-28T12:20:11.976Z,64.59
2017-10-28T12:21:11.977Z,64.31
2017-10-28T12:22:11.974Z,64.50
2017-10-28T12:23:11.967Z,64.59
2017-10-28T12:24:11.965Z,64.50
2017-10-28T12:25:11.988Z,64.31
2017-10-28T12:26:11.966Z,64.31
2017-10-28T12:27:11.960Z,63.83
2017-10-28T12:28:11.961Z,64.12
2017-10-28T12:29:11.963Z,64.12
2017-10-28T12:30:11.956Z,64.02
2017-10-28T12:31:11.954Z,64.02
2017-10-28T12:32:11.953Z,64.21
2017-10-28T12:33:11.948Z,64.40
2017-10-28T12:34:11.956Z,64.21
2017-10-28T12:35:11.944Z,64.12
2017-10-28T12:36:11.942Z,63.73
2017-10-28T12:37:11.939Z,64.12
2017-10-28T12:38:11.939Z,64.02
2017-10-28T12:39:11.939Z,63.83
2017-10-28T12:40:11.934Z,63.73
2017-10-28T12:41:11.953Z,64.02
2017-10-28T12:42:11.930Z,64.21
2017-10-28T12:43:11.929Z,64.31
2017-10-28T12:44:11.933Z,64.59
2017-10-28T12:45:11.924Z,65.17
2017-10-28T12:46:11.925Z,65.55
2017-10-28T12:47:11.923Z,64.59
2017-10-28T12:48:11.946Z,64.88
2017-10-28T12:49:11.916Z,64.97
2017-10-28T12:50:11.916Z,64.94
2017-10-28T12:51:11.916Z,65.07
2017-10-28T12:52:11.912Z,64.59